createdAt,value
2023-01-01T00:01:55.939Z,15.70
2023-01-01T00:04:24.153Z,15.70
2023-01-01T00:06:52.264Z,15.70
2023-01-01T00:09:37.640Z,15.70
2023-01-01T00:12:07.614Z,15.80
2023-01-01T00:14:35.677Z,15.80
2023-01-01T00:17:03.736Z,15.80
2023-01-01T00:19:31.998Z,15.70
2023-01-01T00:22:02.132Z,15.70
2023-01-01T00:24:38.028Z,15.70
2023-01-01T00:27:07.566Z,15.80
2023-01-01T00:29:35.780Z,15.70
2023-01-01T00:32:05.625Z,15.60
2023-01-01T00:34:34.420Z,15.70
2023-01-01T00:37:02.517Z,15.70
2023-01-01T00:39:30.628Z,15.70
2023-01-01T00:41:58.654Z,15.80
2023-01-01T00:44:28.130Z,15.80
2023-01-01T00:46:56.208Z,15.70
2023-01-01T00:49:24.410Z,15.60
2023-01-01T00:51:52.485Z,15.60
2023-01-01T00:54:20.652Z,15.70
2023-01-01T00:56:48.804Z,15.70
2023-01-01T00:59:16.907Z,15.70
2023-01-01T01:01:46.423Z,15.80
2023-01-01T01:04:14.475Z,15.70
2023-01-01T01:06:42.585Z,15.70
2023-01-01T01:09:10.618Z,15.70
2023-01-01T01:11:38.713Z,15.70
2023-01-01T01:14:07.063Z,15.70
2023-01-01T01:16:35.551Z,15.70
2023-01-01T01:19:06.637Z,15.60
2023-01-01T01:21:35.903Z,15.60
2023-01-01T01:24:04.908Z,15.50
2023-01-01T01:26:35.449Z,15.50
2023-01-01T01:29:04.070Z,15.50
2023-01-01T01:31:34.596Z,15.40
2023-01-01T01:34:06.025Z,15.30
2023-01-01T01:36:34.291Z,15.30
2023-01-01T01:39:02.327Z,15.20
2023-01-01T01:41:30.362Z,15.10
2023-01-01T01:44:01.337Z,15.10
2023-01-01T01:46:33.854Z,15.00
2023-01-01T01:49:06.923Z,15.00
2023-01-01T01:51:37.819Z,15.00
2023-01-01T01:54:11.539Z,15.00
2023-01-01T01:56:44.598Z,15.10
2023-01-01T01:59:12.962Z,15.10
2023-01-01T02:01:42.226Z,15.10
2023-01-01T02:04:12.676Z,15.10
2023-01-01T02:06:41.179Z,15.10
2023-01-01T02:09:10.241Z,15.20
2023-01-01T02:11:38.562Z,15.10
2023-01-01T02:14:07.275Z,15.10
2023-01-01T02:16:42.392Z,15.00
2023-01-01T02:19:19.409Z,15.00
2023-01-01T02:22:01.200Z,15.00
2023-01-01T02:24:50.795Z,15.00
2023-01-01T02:27:27.319Z,15.00
2023-01-01T02:30:00.812Z,15.00
2023-01-01T02:32:32.301Z,15.00
2023-01-01T02:35:24.896Z,15.10
2023-01-01T02:37:57.473Z,15.10
2023-01-01T02:40:27.957Z,15.10
2023-01-01T02:42:58.433Z,15.00
2023-01-01T02:45:27.931Z,15.10
2023-01-01T02:47:55.920Z,15.00
2023-01-01T02:50:27.081Z,15.10
2023-01-01T02:53:28.569Z,15.00
2023-01-01T02:56:05.515Z,15.10
2023-01-01T02:58:54.576Z,15.20
2023-01-01T03:01:31.080Z,15.20
2023-01-01T03:04:08.119Z,15.20
2023-01-01T03:06:43.058Z,15.20
2023-01-01T03:09:19.471Z,15.10
2023-01-01T03:11:55.556Z,15.20
2023-01-01T03:14:32.027Z,15.20
2023-01-01T03:17:06.448Z,15.20
2023-01-01T03:19:38.518Z,15.10
2023-01-01T03:22:09.164Z,15.10
2023-01-01T03:24:42.744Z,15.10
2023-01-01T03:27:14.857Z,15.20
2023-01-01T03:29:44.513Z,15.20
2023-01-01T03:32:19.847Z,15.10
2023-01-01T03:34:53.144Z,15.10
2023-01-01T03:37:26.161Z,15.10
2023-01-01T03:39:58.116Z,15.00
2023-01-01T03:42:33.376Z,15.00
2023-01-01T03:45:06.000Z,15.10
2023-01-01T03:47:35.543Z,15.00
2023-01-01T03:50:04.896Z,15.00
2023-01-01T03:52:44.580Z,15.00
2023-01-01T03:55:19.395Z,15.00
2023-01-01T03:57:56.435Z,15.00
2023-01-01T04:00:28.067Z,15.00
2023-01-01T04:03:01.519Z,15.00
2023-01-01T04:05:30.865Z,15.10
2023-01-01T04:08:02.940Z,15.20
2023-01-01T04:10:33.402Z,15.10
2023-01-01T04:13:04.743Z,15.10
2023-01-01T04:15:35.955Z,15.00
2023-01-01T04:18:05.735Z,14.90
2023-01-01T04:20:33.968Z,14.80
2023-01-01T04:23:03.156Z,14.50
2023-01-01T04:25:31.672Z,14.20
2023-01-01T04:28:03.302Z,13.80
2023-01-01T04:30:31.560Z,13.60
2023-01-01T04:32:59.527Z,13.50
2023-01-01T04:35:28.868Z,13.50
2023-01-01T04:37:56.944Z,13.40
2023-01-01T04:40:25.024Z,13.50
2023-01-01T04:42:55.108Z,13.60
2023-01-01T04:45:23.310Z,13.60
2023-01-01T04:47:51.382Z,13.60
2023-01-01T04:50:19.440Z,13.60
2023-01-01T04:52:51.354Z,13.70
2023-01-01T04:55:20.483Z,13.80
2023-01-01T04:57:48.600Z,13.80
2023-01-01T05:00:17.481Z,13.90
2023-01-01T05:02:45.587Z,13.90
2023-01-01T05:05:13.697Z,13.90
2023-01-01T05:07:41.830Z,13.90
2023-01-01T05:10:11.418Z,14.00
2023-01-01T05:12:39.478Z,14.00
2023-01-01T05:15:08.778Z,14.00
2023-01-01T05:17:36.855Z,14.00
2023-01-01T05:20:05.260Z,14.00
2023-01-01T05:22:33.287Z,14.00
2023-01-01T05:25:01.165Z,14.00
2023-01-01T05:27:30.592Z,14.00
2023-01-01T05:29:58.823Z,14.00
2023-01-01T05:32:26.931Z,14.10
2023-01-01T05:34:56.256Z,14.10
2023-01-01T05:37:24.268Z,14.10
2023-01-01T05:39:52.360Z,14.00
2023-01-01T05:42:20.462Z,14.00
2023-01-01T05:44:49.854Z,14.00
2023-01-01T05:47:18.777Z,13.90
2023-01-01T05:49:47.124Z,13.90
2023-01-01T05:52:15.216Z,13.90
2023-01-01T05:54:43.263Z,13.90
2023-01-01T05:57:11.298Z,13.80
2023-01-01T05:59:39.325Z,13.80
2023-01-01T06:02:08.859Z,13.80
2023-01-01T06:04:36.989Z,13.70
2023-01-01T06:07:05.040Z,13.70
2023-01-01T06:09:33.130Z,13.60
2023-01-01T06:12:01.172Z,13.60
2023-01-01T06:14:29.231Z,13.60
2023-01-01T06:16:57.275Z,13.60
2023-01-01T06:19:26.627Z,13.60
2023-01-01T06:21:54.683Z,13.60
2023-01-01T06:24:22.784Z,13.50
2023-01-01T06:26:50.856Z,13.50
2023-01-01T06:29:18.925Z,13.40
2023-01-01T06:31:46.960Z,13.40
2023-01-01T06:34:15.058Z,13.40
2023-01-01T06:36:44.500Z,13.40
2023-01-01T06:39:12.561Z,13.40
2023-01-01T06:41:40.635Z,13.40
2023-01-01T06:44:08.644Z,13.30
2023-01-01T06:46:37.874Z,13.30
2023-01-01T06:49:07.881Z,13.30
2023-01-01T06:51:39.373Z,13.30
2023-01-01T06:54:09.379Z,13.20
2023-01-01T06:56:37.977Z,13.20
2023-01-01T06:59:06.405Z,13.10
2023-01-01T07:01:37.485Z,13.10
2023-01-01T07:04:08.611Z,13.00
2023-01-01T07:06:37.518Z,13.00
2023-01-01T07:09:06.578Z,13.00
2023-01-01T07:11:36.541Z,12.90
2023-01-01T07:14:04.942Z,12.80
2023-01-01T07:16:33.221Z,12.70
2023-01-01T07:19:01.348Z,12.70
2023-01-01T07:21:31.809Z,12.60
2023-01-01T07:24:01.406Z,12.60
2023-01-01T07:26:30.695Z,12.50
2023-01-01T07:29:07.635Z,12.50
2023-01-01T07:31:37.498Z,12.50
2023-01-01T07:34:06.240Z,12.50
2023-01-01T07:36:34.526Z,12.50
2023-01-01T07:39:02.630Z,12.40
2023-01-01T07:41:30.737Z,12.40
2023-01-01T07:44:00.190Z,12.40
2023-01-01T07:46:28.746Z,12.40
2023-01-01T07:48:57.124Z,12.30
2023-01-01T07:51:25.142Z,12.30
2023-01-01T07:53:53.220Z,12.30
2023-01-01T07:56:21.402Z,12.30
2023-01-01T07:58:49.429Z,12.30
2023-01-01T08:01:19.298Z,12.30
2023-01-01T08:03:53.298Z,12.30
2023-01-01T08:06:22.434Z,12.30
2023-01-01T08:08:50.593Z,12.30
2023-01-01T08:11:18.780Z,12.30
2023-01-01T08:13:46.907Z,12.20
2023-01-01T08:16:15.027Z,12.20
2023-01-01T08:18:44.487Z,12.20
2023-01-01T08:21:12.577Z,12.20
2023-01-01T08:23:40.755Z,12.20
2023-01-01T08:26:08.909Z,12.20
2023-01-01T08:28:37.177Z,12.10
2023-01-01T08:31:05.521Z,12.10
2023-01-01T08:33:33.591Z,12.10
2023-01-01T08:36:03.192Z,12.20
2023-01-01T08:38:31.178Z,12.10
2023-01-01T08:40:59.158Z,12.10
2023-01-01T08:43:27.267Z,12.10
2023-01-01T08:45:55.311Z,12.10
2023-01-01T08:48:30.411Z,12.20
2023-01-01T08:51:01.152Z,12.20
2023-01-01T08:53:31.423Z,12.20
2023-01-01T08:56:00.146Z,12.30
2023-01-01T08:58:28.607Z,12.30
2023-01-01T09:00:56.683Z,12.20
2023-01-01T09:03:24.961Z,12.20
2023-01-01T09:05:53.472Z,12.20
2023-01-01T09:08:22.022Z,12.20
2023-01-01T09:10:52.099Z,12.20
2023-01-01T09:13:21.819Z,12.20
2023-01-01T09:15:50.019Z,12.30
2023-01-01T09:18:18.140Z,12.30
2023-01-01T09:20:46.164Z,12.20
2023-01-01T09:23:14.652Z,12.30
2023-01-01T09:25:42.610Z,12.30
2023-01-01T09:28:14.159Z,12.30
2023-01-01T09:30:42.653Z,12.40
2023-01-01T09:33:10.885Z,12.40
2023-01-01T09:35:39.415Z,12.40
2023-01-01T09:38:07.541Z,12.50
2023-01-01T09:40:51.360Z,12.50
2023-01-01T09:43:30.824Z,12.50
2023-01-01T09:46:02.509Z,12.60
2023-01-01T09:48:32.632Z,12.60
2023-01-01T09:51:02.199Z,12.60
2023-01-01T09:53:35.256Z,12.70
2023-01-01T09:56:05.315Z,12.60
2023-01-01T09:58:36.878Z,12.70
2023-01-01T10:01:15.586Z,12.70
2023-01-01T10:03:49.610Z,12.80
2023-01-01T10:06:23.863Z,12.80
2023-01-01T10:09:08.698Z,12.80
2023-01-01T10:11:44.571Z,12.70
2023-01-01T10:14:23.504Z,12.80
2023-01-01T10:16:55.647Z,12.90
2023-01-01T10:19:33.101Z,12.90
2023-01-01T10:22:04.679Z,13.00
2023-01-01T10:24:40.787Z,13.00
2023-01-01T10:27:12.200Z,12.90
2023-01-01T10:29:45.176Z,12.90
2023-01-01T10:32:21.088Z,13.00
2023-01-01T10:34:50.484Z,13.00
2023-01-01T10:37:18.743Z,13.10
2023-01-01T10:39:48.712Z,13.10
2023-01-01T10:42:17.585Z,13.20
2023-01-01T10:44:48.027Z,13.30
2023-01-01T10:47:28.366Z,13.30
2023-01-01T10:49:59.028Z,13.30
2023-01-01T10:52:31.996Z,13.30
2023-01-01T10:55:01.058Z,13.30
2023-01-01T10:57:35.377Z,13.20
2023-01-01T11:00:24.085Z,13.20
2023-01-01T11:03:19.271Z,13.10
2023-01-01T11:06:11.771Z,13.10
2023-01-01T11:08:48.133Z,13.10
2023-01-01T11:11:22.421Z,13.20
2023-01-01T11:13:55.963Z,13.20
2023-01-01T11:16:26.695Z,13.20
2023-01-01T11:19:03.085Z,13.20
2023-01-01T11:21:31.622Z,13.20
2023-01-01T11:24:20.218Z,13.20
2023-01-01T11:26:54.300Z,13.20
2023-01-01T11:29:27.131Z,13.10
2023-01-01T11:31:58.092Z,13.10
2023-01-01T11:34:33.213Z,13.00
2023-01-01T11:37:24.957Z,13.00
2023-01-01T11:39:54.690Z,13.00
2023-01-01T11:42:24.817Z,13.00
2023-01-01T11:44:55.807Z,13.10
2023-01-01T11:47:30.000Z,13.10
2023-01-01T11:50:01.667Z,13.10
2023-01-01T11:52:40.893Z,13.10
2023-01-01T11:55:21.246Z,13.10
2023-01-01T11:57:58.526Z,13.10
2023-01-01T12:00:26.612Z,13.20
2023-01-01T12:03:00.614Z,13.20
2023-01-01T12:05:42.938Z,13.30
2023-01-01T12:08:17.745Z,13.30
2023-01-01T12:10:51.735Z,13.40
2023-01-01T12:13:23.268Z,13.40
2023-01-01T12:16:01.844Z,13.50
2023-01-01T12:18:40.551Z,13.50
2023-01-01T12:21:15.715Z,13.60
2023-01-01T12:23:43.777Z,13.70
2023-01-01T12:26:19.271Z,13.80
2023-01-01T12:29:12.280Z,13.80
2023-01-01T12:31:57.373Z,13.80
2023-01-01T12:34:32.433Z,13.80
2023-01-01T12:37:05.252Z,13.80
2023-01-01T12:40:01.693Z,13.80
2023-01-01T12:42:41.162Z,13.90
2023-01-01T12:45:34.077Z,13.90
2023-01-01T12:48:09.912Z,13.80
2023-01-01T12:50:55.101Z,13.80
2023-01-01T12:53:31.849Z,13.90
2023-01-01T12:56:23.185Z,13.90
2023-01-01T12:58:56.887Z,13.90
2023-01-01T13:01:33.151Z,13.90
2023-01-01T13:04:03.869Z,13.90
2023-01-01T13:06:39.777Z,13.80
2023-01-01T13:09:12.583Z,13.80
2023-01-01T13:11:45.209Z,13.80
2023-01-01T13:14:14.135Z,13.80
2023-01-01T13:16:43.370Z,13.80
2023-01-01T13:19:26.567Z,13.70
2023-01-01T13:21:56.025Z,13.70
2023-01-01T13:24:25.776Z,13.70
2023-01-01T13:26:54.652Z,13.70
2023-01-01T13:29:36.468Z,13.70
2023-01-01T13:32:11.526Z,13.60
2023-01-01T13:35:02.827Z,13.60
2023-01-01T13:37:45.013Z,13.60
2023-01-01T13:40:34.862Z,13.60
2023-01-01T13:43:07.974Z,13.50
2023-01-01T13:49:01.855Z,13.60
2023-01-01T13:52:07.045Z,13.50
2023-01-01T13:55:05.851Z,13.50
2023-01-01T13:57:56.412Z,13.50
2023-01-01T14:00:26.655Z,13.50
2023-01-01T14:02:59.413Z,13.40
2023-01-01T14:05:33.834Z,13.40
2023-01-01T14:08:02.080Z,13.40
2023-01-01T14:10:33.023Z,13.40
2023-01-01T14:13:17.092Z,13.40
2023-01-01T14:15:54.162Z,13.40
2023-01-01T14:18:26.437Z,13.40
2023-01-01T14:20:55.018Z,13.30
2023-01-01T14:23:31.118Z,13.30
2023-01-01T14:26:02.281Z,13.30
2023-01-01T14:28:32.153Z,13.20
2023-01-01T14:31:08.744Z,13.20
2023-01-01T14:33:40.182Z,13.10
2023-01-01T14:36:17.604Z,13.10
2023-01-01T14:38:47.509Z,13.10
2023-01-01T14:41:21.204Z,13.10
2023-01-01T14:43:51.627Z,13.10
2023-01-01T14:46:23.269Z,13.00
2023-01-01T14:48:53.510Z,13.00
2023-01-01T14:51:24.463Z,13.00
2023-01-01T14:53:54.747Z,13.00
2023-01-01T14:56:28.079Z,12.90
2023-01-01T14:59:04.418Z,12.90
2023-01-01T15:01:32.653Z,12.90
2023-01-01T15:04:02.291Z,12.90
2023-01-01T15:06:32.099Z,12.90
2023-01-01T15:09:00.201Z,12.80
2023-01-01T15:11:29.647Z,12.80
2023-01-01T15:14:00.997Z,12.80
2023-01-01T15:16:37.950Z,12.80
2023-01-01T15:19:19.284Z,12.70
2023-01-01T15:21:47.595Z,12.70
2023-01-01T15:24:20.380Z,12.70
2023-01-01T15:26:53.731Z,12.70
2023-01-01T15:29:29.075Z,12.60
2023-01-01T15:32:00.055Z,12.60
2023-01-01T15:34:32.288Z,12.60
2023-01-01T15:37:10.334Z,12.60
2023-01-01T15:39:47.735Z,12.60
2023-01-01T15:42:38.073Z,12.60
2023-01-01T15:45:24.516Z,12.60
2023-01-01T15:47:55.674Z,12.60
2023-01-01T15:50:26.045Z,12.60
2023-01-01T15:52:56.922Z,12.60
2023-01-01T15:55:28.414Z,12.60
2023-01-01T15:57:59.036Z,12.60
2023-01-01T16:00:29.641Z,12.60
2023-01-01T16:03:01.430Z,12.60
2023-01-01T16:05:30.957Z,12.60
2023-01-01T16:08:01.349Z,12.60
2023-01-01T16:10:29.843Z,12.60
2023-01-01T16:12:59.268Z,12.70
2023-01-01T16:15:28.082Z,12.70
2023-01-01T16:17:56.618Z,12.70
2023-01-01T16:20:25.423Z,12.70
2023-01-01T16:22:53.579Z,12.70
2023-01-01T16:25:23.538Z,12.70
2023-01-01T16:27:51.665Z,12.80
2023-01-01T16:30:25.846Z,12.80
2023-01-01T16:32:53.928Z,12.70
2023-01-01T16:35:22.214Z,12.70
2023-01-01T16:37:50.273Z,12.80
2023-01-01T16:40:18.605Z,12.80
2023-01-01T16:42:46.619Z,12.80
2023-01-01T16:45:18.836Z,12.80
2023-01-01T16:47:50.157Z,12.80
2023-01-01T16:50:18.651Z,12.80
2023-01-01T16:52:46.684Z,12.80
2023-01-01T16:55:15.308Z,12.80
2023-01-01T16:57:43.629Z,12.70
2023-01-01T17:00:12.956Z,12.70
2023-01-01T17:02:41.198Z,12.70
2023-01-01T17:05:11.494Z,12.70
2023-01-01T17:07:39.550Z,12.70
2023-01-01T17:10:08.351Z,12.70
2023-01-01T17:12:36.422Z,12.60
2023-01-01T17:15:04.879Z,12.60
2023-01-01T17:17:32.944Z,12.60
2023-01-01T17:20:01.056Z,12.60
2023-01-01T17:22:34.192Z,12.50
2023-01-01T17:25:02.824Z,12.50
2023-01-01T17:27:31.928Z,12.50
2023-01-01T17:30:00.177Z,12.40
2023-01-01T17:32:28.386Z,12.40
2023-01-01T17:34:56.441Z,12.40
2023-01-01T17:37:24.447Z,12.30
2023-01-01T17:39:54.196Z,12.30
2023-01-01T17:42:22.270Z,12.20
2023-01-01T17:44:50.347Z,12.20
2023-01-01T17:47:18.519Z,12.20
2023-01-01T17:49:46.544Z,12.20
2023-01-01T17:52:14.558Z,12.10
2023-01-01T17:54:42.647Z,12.10
2023-01-01T17:57:12.057Z,12.10
2023-01-01T17:59:40.156Z,12.00
2023-01-01T18:02:13.024Z,12.00
2023-01-01T18:04:44.116Z,12.00
2023-01-01T18:07:12.190Z,12.00
2023-01-01T18:09:40.529Z,11.90
2023-01-01T18:12:08.796Z,11.90
2023-01-01T18:14:38.271Z,11.90
2023-01-01T18:17:06.334Z,11.90
2023-01-01T18:19:35.398Z,11.80
2023-01-01T18:22:04.124Z,11.80
2023-01-01T18:24:32.203Z,11.70
2023-01-01T18:27:00.314Z,11.70
2023-01-01T18:29:28.351Z,11.70
2023-01-01T18:31:57.778Z,11.70
2023-01-01T18:34:26.617Z,11.70
2023-01-01T18:36:56.265Z,11.60
2023-01-01T18:39:29.437Z,11.60
2023-01-01T18:42:29.481Z,11.60
2023-01-01T18:45:08.568Z,11.50
2023-01-01T18:47:38.049Z,11.50
2023-01-01T18:50:15.813Z,11.50
2023-01-01T18:52:43.851Z,11.50
2023-01-01T18:55:15.103Z,11.50
2023-01-01T18:57:44.477Z,11.40
2023-01-01T19:00:19.736Z,11.40
2023-01-01T19:02:56.148Z,11.40
2023-01-01T19:05:27.313Z,11.40
2023-01-01T19:08:02.737Z,11.40
2023-01-01T19:10:36.664Z,11.40
2023-01-01T19:13:19.951Z,11.40
2023-01-01T19:15:50.511Z,11.40
2023-01-01T19:18:22.226Z,11.40
2023-01-01T19:20:51.785Z,11.30
2023-01-01T19:23:23.187Z,11.30
2023-01-01T19:25:51.664Z,11.30
2023-01-01T19:28:36.590Z,11.30
2023-01-01T19:31:06.457Z,11.30
2023-01-01T19:33:35.939Z,11.30
2023-01-01T19:36:04.207Z,11.30
2023-01-01T19:38:32.271Z,11.30
2023-01-01T19:41:00.320Z,11.30
2023-01-01T19:43:28.343Z,11.30
2023-01-01T19:45:56.377Z,11.30
2023-01-01T19:48:24.450Z,11.40
2023-01-01T19:50:53.789Z,11.30
2023-01-01T19:53:22.083Z,11.30
2023-01-01T19:55:50.458Z,11.30
2023-01-01T19:58:19.979Z,11.30
2023-01-01T20:00:48.059Z,11.30
2023-01-01T20:06:05.880Z,11.30
2023-01-01T20:08:34.160Z,11.30
2023-01-01T20:11:02.366Z,11.30
2023-01-01T20:13:30.383Z,11.30
2023-01-01T20:15:58.603Z,11.30
2023-01-01T20:18:26.781Z,11.30
2023-01-01T20:21:12.418Z,11.30
2023-01-01T20:23:42.019Z,11.30
2023-01-01T20:26:10.239Z,11.30
2023-01-01T20:28:55.644Z,11.30
2023-01-01T20:31:23.733Z,11.30
2023-01-01T20:33:51.843Z,11.30
2023-01-01T20:36:37.539Z,11.30
2023-01-01T20:39:06.949Z,11.20
2023-01-01T20:41:34.962Z,11.30
2023-01-01T20:44:02.908Z,11.30
2023-01-01T20:46:31.073Z,11.30
2023-01-01T20:48:59.508Z,11.30
2023-01-01T20:51:27.626Z,11.20
2023-01-01T20:53:55.831Z,11.30
2023-01-01T20:56:25.214Z,11.30
2023-01-01T20:58:59.539Z,11.20
2023-01-01T21:01:30.189Z,11.20
2023-01-01T21:03:58.427Z,11.30
2023-01-01T21:06:26.479Z,11.30
2023-01-01T21:08:54.628Z,11.30
2023-01-01T21:11:22.619Z,11.30
2023-01-01T21:13:52.197Z,11.30
2023-01-01T21:16:21.999Z,11.40
2023-01-01T21:18:50.327Z,11.40
2023-01-01T21:21:21.868Z,11.40
2023-01-01T21:23:51.381Z,11.40
2023-01-01T21:26:26.317Z,11.40
2023-01-01T21:28:55.881Z,11.30
2023-01-01T21:31:23.917Z,11.30
2023-01-01T21:33:51.962Z,11.40
2023-01-01T21:36:22.751Z,11.30
2023-01-01T21:38:52.681Z,11.30
2023-01-01T21:41:23.806Z,11.30
2023-01-01T21:43:57.283Z,11.30
2023-01-01T21:46:35.943Z,11.30
2023-01-01T21:49:16.950Z,11.30
2023-01-01T21:51:50.846Z,11.30
2023-01-01T21:54:23.109Z,11.20
2023-01-01T21:56:55.138Z,11.30
2023-01-01T21:59:36.983Z,11.20
2023-01-01T22:02:33.292Z,11.20
2023-01-01T22:05:04.000Z,11.20
2023-01-01T22:10:26.425Z,11.20
2023-01-01T22:13:00.054Z,11.20
2023-01-01T22:15:39.010Z,11.20
2023-01-01T22:18:22.808Z,11.30
2023-01-01T22:20:51.583Z,11.30
2023-01-01T22:23:34.792Z,11.20
2023-01-01T22:26:05.895Z,11.20
2023-01-01T22:28:41.959Z,11.30
2023-01-01T22:31:14.815Z,11.30
2023-01-01T22:33:46.007Z,11.20
2023-01-01T22:36:17.086Z,11.20
2023-01-01T22:38:45.702Z,11.20
2023-01-01T22:41:14.657Z,11.20
2023-01-01T22:43:44.912Z,11.30
2023-01-01T22:46:18.323Z,11.30
2023-01-01T22:48:47.415Z,11.40
2023-01-01T22:51:21.169Z,11.40
2023-01-01T22:53:49.302Z,11.40
2023-01-01T22:56:17.703Z,11.40
2023-01-01T22:58:45.788Z,11.40
2023-01-01T23:01:15.297Z,11.50
2023-01-01T23:03:43.379Z,11.50
2023-01-01T23:06:11.665Z,11.50
2023-01-01T23:08:39.763Z,11.50
2023-01-01T23:11:08.040Z,11.50
2023-01-01T23:13:53.701Z,11.50
2023-01-01T23:16:23.223Z,11.60
2023-01-01T23:18:51.289Z,11.60
2023-01-01T23:21:26.670Z,11.70
2023-01-01T23:23:56.706Z,11.70
2023-01-01T23:26:25.272Z,11.80
2023-01-01T23:28:54.135Z,11.80
2023-01-01T23:31:25.901Z,11.80
2023-01-01T23:33:54.891Z,11.80
2023-01-01T23:36:23.402Z,11.80
2023-01-01T23:38:51.438Z,11.80
2023-01-01T23:41:19.627Z,11.80
2023-01-01T23:43:47.729Z,11.80
2023-01-01T23:46:16.519Z,11.90
2023-01-01T23:48:47.444Z,11.80
2023-01-01T23:51:17.297Z,11.90
2023-01-01T23:53:45.590Z,11.90
2023-01-01T23:56:13.964Z,11.90
2023-01-01T23:58:42.012Z,11.90
